createdAt,value
2019-02-22T00:02:37.565Z,102553.38
2019-02-22T00:05:41.704Z,102558.27
2019-02-22T00:08:45.841Z,102566.90
2019-02-22T00:11:49.961Z,102576.44
2019-02-22T00:14:54.105Z,102577.73
2019-02-22T00:17:58.237Z,102582.47
2019-02-22T00:21:02.383Z,102582.58
2019-02-22T00:24:06.539Z,102590.36
2019-02-22T00:27:10.661Z,102599.00
2019-02-22T00:30:14.813Z,102598.25
2019-02-22T00:33:18.932Z,102600.98
2019-02-22T00:36:23.124Z,102604.98
2019-02-22T00:39:27.201Z,102613.56
2019-02-22T00:42:31.350Z,102617.45
2019-02-22T00:45:35.491Z,102620.55
2019-02-22T00:48:39.611Z,102627.14
2019-02-22T00:51:43.753Z,102629.23
2019-02-22T00:54:47.873Z,102627.59
2019-02-22T00:57:52.012Z,102639.17
2019-02-22T01:00:56.180Z,102644.54
2019-02-22T01:04:00.393Z,102641.02
2019-02-22T01:07:04.804Z,102650.63
2019-02-22T01:10:08.997Z,102664.95
2019-02-22T01:13:13.140Z,102669.69
2019-02-22T01:16:17.260Z,102672.38
2019-02-22T01:19:21.405Z,102669.69
2019-02-22T01:22:25.548Z,102673.68
2019-02-22T01:25:29.676Z,102675.88
2019-02-22T01:28:33.829Z,102686.25
2019-02-22T01:31:37.943Z,102694.16
2019-02-22T01:34:42.089Z,102694.94
2019-02-22T01:37:46.225Z,102700.08
2019-02-22T01:40:50.346Z,102701.95
2019-02-22T01:43:54.490Z,102711.58
2019-02-22T01:46:58.612Z,102716.36
2019-02-22T01:50:02.756Z,102724.55
2019-02-22T01:53:06.905Z,102731.44
2019-02-22T01:56:11.031Z,102733.13
2019-02-22T01:59:15.178Z,102731.93
2019-02-22T02:02:19.303Z,102741.50
2019-02-22T02:05:23.446Z,102749.65
2019-02-22T02:08:27.591Z,102752.23
2019-02-22T02:11:31.710Z,102758.41
2019-02-22T02:14:35.860Z,102756.22
2019-02-22T02:17:39.990Z,102749.41
2019-02-22T02:20:44.189Z,102752.50
2019-02-22T02:23:48.299Z,102760.12
2019-02-22T02:26:52.445Z,102763.33
2019-02-22T02:29:56.606Z,102758.63
2019-02-22T02:33:00.725Z,102762.52
2019-02-22T02:36:04.912Z,102763.28
2019-02-22T02:39:09.037Z,102759.03
2019-02-22T02:42:13.190Z,102766.41
2019-02-22T02:45:17.325Z,102773.79
2019-02-22T02:48:21.468Z,102781.98
2019-02-22T02:51:25.599Z,102781.17
2019-02-22T02:54:29.716Z,102782.52
2019-02-22T02:57:33.865Z,102794.14
2019-02-22T03:00:38.174Z,102798.08
2019-02-22T03:03:42.302Z,102805.81
2019-02-22T03:06:50.717Z,102816.23
2019-02-22T03:09:54.843Z,102824.02
2019-02-22T03:12:58.986Z,102835.37
2019-02-22T03:16:03.128Z,102836.17
2019-02-22T03:19:07.263Z,102842.74
2019-02-22T03:22:11.454Z,102841.41
2019-02-22T03:25:15.574Z,102848.80
2019-02-22T03:28:19.721Z,102856.17
2019-02-22T03:31:23.840Z,102851.47
2019-02-22T03:34:27.988Z,102851.02
2019-02-22T03:37:32.151Z,102862.25
2019-02-22T03:40:36.445Z,102866.99
2019-02-22T03:43:40.584Z,102868.73
2019-02-22T03:46:44.709Z,102890.05
2019-02-22T03:49:48.849Z,102896.46
2019-02-22T03:52:57.180Z,102903.91
2019-02-22T03:56:01.307Z,102915.14
2019-02-22T03:59:05.823Z,102917.28
2019-02-22T04:02:09.946Z,102925.19
2019-02-22T04:05:14.091Z,102935.11
2019-02-22T04:08:18.212Z,102942.08
2019-02-22T04:11:22.357Z,102955.02
2019-02-22T04:14:26.504Z,102960.24
2019-02-22T04:17:30.625Z,102970.20
2019-02-22T04:20:34.787Z,102974.95
2019-02-22T04:23:38.914Z,102978.06
2019-02-22T04:26:43.044Z,102983.63
2019-02-22T04:29:47.193Z,102988.87
2019-02-22T04:32:51.321Z,102991.03
2019-02-22T04:35:55.469Z,103002.30
2019-02-22T04:38:59.588Z,103012.22
2019-02-22T04:42:03.764Z,103018.70
2019-02-22T04:45:07.893Z,103024.81
2019-02-22T04:48:12.024Z,103032.53
2019-02-22T04:51:16.165Z,103028.64
2019-02-22T04:54:20.303Z,103034.75
2019-02-22T04:57:24.442Z,103042.97
2019-02-22T05:00:28.561Z,103047.27
2019-02-22T05:03:32.711Z,103053.75
2019-02-22T05:06:36.852Z,103058.53
2019-02-22T05:09:40.979Z,103064.64
2019-02-22T05:12:45.126Z,103070.69
2019-02-22T05:15:49.249Z,103083.24
2019-02-22T05:18:53.402Z,103082.39
2019-02-22T05:21:57.519Z,103088.43
2019-02-22T05:25:01.666Z,103090.13
2019-02-22T05:28:05.813Z,103105.28
2019-02-22T05:31:09.939Z,103104.40
2019-02-22T05:34:14.085Z,103103.17
2019-02-22T05:37:18.208Z,103114.80
2019-02-22T05:40:22.352Z,103127.81
2019-02-22T05:43:26.498Z,103130.02
2019-02-22T05:46:30.617Z,103136.51
2019-02-22T05:49:34.763Z,103142.98
2019-02-22T05:52:38.980Z,103150.80
2019-02-22T05:55:44.268Z,103152.95
2019-02-22T05:58:48.501Z,103157.73
2019-02-22T06:01:52.650Z,103166.77
2019-02-22T06:04:56.793Z,103173.77
2019-02-22T06:08:00.919Z,103180.62
2019-02-22T06:11:05.061Z,103188.00
2019-02-22T06:14:09.186Z,103190.15
2019-02-22T06:17:14.758Z,103189.33
2019-02-22T06:20:19.137Z,103197.58
2019-02-22T06:23:23.281Z,103211.84
2019-02-22T06:26:27.427Z,103216.55
2019-02-22T06:29:31.549Z,103220.91
2019-02-22T06:32:35.695Z,103226.98
2019-02-22T06:35:39.818Z,103233.88
2019-02-22T06:38:46.575Z,103239.95
2019-02-22T06:41:49.785Z,103249.53
2019-02-22T06:44:53.928Z,103260.28
2019-02-22T06:47:58.073Z,103260.28
2019-02-22T06:51:02.198Z,103265.09
2019-02-22T06:54:06.345Z,103276.77
2019-02-22T06:57:10.470Z,103282.42
2019-02-22T07:00:14.681Z,103294.91
2019-02-22T07:03:18.824Z,103300.57
2019-02-22T07:06:22.952Z,103314.83
2019-02-22T07:09:27.097Z,103311.88
2019-02-22T07:12:32.866Z,103325.26
2019-02-22T07:15:37.009Z,103327.85
2019-02-22T07:18:41.177Z,103333.56
2019-02-22T07:21:52.668Z,103343.47
2019-02-22T07:24:51.161Z,103347.85
2019-02-22T07:27:55.286Z,103350.86
2019-02-22T07:30:59.428Z,103367.77
2019-02-22T07:34:03.550Z,103373.28
2019-02-22T07:37:07.702Z,103387.55
2019-02-22T07:40:11.861Z,103388.48
2019-02-22T07:43:15.977Z,103401.00
2019-02-22T07:46:20.181Z,103412.25
2019-02-22T07:49:26.140Z,103411.38
2019-02-22T07:52:30.286Z,103422.25
2019-02-22T07:55:34.446Z,103432.41
2019-02-22T07:58:38.568Z,103430.12
2019-02-22T08:01:47.333Z,103446.56
2019-02-22T08:04:48.534Z,103457.59
2019-02-22T08:07:52.677Z,103453.53
2019-02-22T08:10:56.797Z,103472.70
2019-02-22T08:14:00.943Z,103478.60
2019-02-22T08:17:05.086Z,103484.41
2019-02-22T08:20:09.577Z,103491.63
2019-02-22T08:23:13.737Z,103497.95
2019-02-22T08:26:17.858Z,103495.19
2019-02-22T08:29:22.001Z,103509.20
2019-02-22T08:32:26.157Z,103516.77
2019-02-22T08:35:30.269Z,103516.00
2019-02-22T08:38:34.420Z,103521.14
2019-02-22T08:41:38.541Z,103531.47
2019-02-22T08:44:42.701Z,103538.28
2019-02-22T08:47:46.849Z,103536.03
2019-02-22T08:50:50.973Z,103545.45
2019-02-22T08:53:55.121Z,103544.48
2019-02-22T08:56:59.242Z,103544.45
2019-02-22T09:00:03.480Z,103543.63
2019-02-22T09:03:07.590Z,103547.81
2019-02-22T09:06:11.729Z,103552.09
2019-02-22T09:09:15.876Z,103560.34
2019-02-22T09:12:20.002Z,103567.31
2019-02-22T09:15:24.145Z,103575.39
2019-02-22T09:18:28.267Z,103579.20
2019-02-22T09:21:32.416Z,103586.97
2019-02-22T09:24:36.564Z,103602.05
2019-02-22T09:27:40.703Z,103604.15
2019-02-22T09:30:44.850Z,103611.88
2019-02-22T09:33:48.971Z,103613.59
2019-02-22T09:36:53.122Z,103617.88
2019-02-22T09:39:57.269Z,103617.50
2019-02-22T09:43:01.398Z,103620.83
2019-02-22T09:46:05.541Z,103631.64
2019-02-22T09:49:09.716Z,103629.61
2019-02-22T09:52:13.861Z,103638.75
2019-02-22T09:55:18.029Z,103638.38
2019-02-22T09:58:22.152Z,103641.00
2019-02-22T10:01:26.300Z,103646.14
2019-02-22T10:04:30.420Z,103658.73
2019-02-22T10:07:34.565Z,103653.94
2019-02-22T10:10:38.685Z,103658.31
2019-02-22T10:13:42.830Z,103657.88
2019-02-22T10:16:47.134Z,103662.73
2019-02-22T10:19:51.276Z,103673.98
2019-02-22T10:22:55.419Z,103666.66
2019-02-22T10:25:59.541Z,103666.40
2019-02-22T10:29:03.689Z,103669.00
2019-02-22T10:32:07.828Z,103666.46
2019-02-22T10:35:11.970Z,103661.30
2019-02-22T10:38:16.120Z,103659.55
2019-02-22T10:41:20.244Z,103668.30
2019-02-22T10:44:24.392Z,103668.45
2019-02-22T10:47:28.714Z,103683.19
2019-02-22T10:50:32.830Z,103691.88
2019-02-22T10:53:36.973Z,103699.34
2019-02-22T10:56:41.098Z,103703.69
2019-02-22T10:59:45.241Z,103710.03
2019-02-22T11:02:49.384Z,103713.78
2019-02-22T11:05:53.510Z,103716.47
2019-02-22T11:08:57.658Z,103718.21
2019-02-22T11:12:01.783Z,103704.22
2019-02-22T11:15:08.532Z,103702.93
2019-02-22T11:18:12.677Z,103686.88
2019-02-22T11:21:16.801Z,103682.17
2019-02-22T11:24:20.972Z,103690.92
2019-02-22T11:27:25.094Z,103692.52
2019-02-22T11:30:29.247Z,103702.72
2019-02-22T11:33:33.401Z,103710.91
2019-02-22T11:36:37.525Z,103708.75
2019-02-22T11:39:42.257Z,103725.58
2019-02-22T11:42:46.370Z,103722.08
2019-02-22T11:45:50.521Z,103725.53
2019-02-22T11:48:54.644Z,103728.94
2019-02-22T11:51:58.797Z,103725.90
2019-02-22T11:55:03.873Z,103723.24
2019-02-22T11:58:07.998Z,103727.14
2019-02-22T12:01:12.962Z,103727.11
2019-02-22T12:04:17.109Z,103727.94
2019-02-22T12:07:21.232Z,103735.60
2019-02-22T12:10:25.380Z,103727.97
2019-02-22T12:13:31.879Z,103727.77
2019-02-22T12:16:35.345Z,103738.02
2019-02-22T12:19:39.492Z,103743.61
2019-02-22T12:22:43.613Z,103743.02
2019-02-22T12:25:47.756Z,103747.80
2019-02-22T12:28:51.876Z,103748.16
2019-02-22T12:31:56.023Z,103746.74
2019-02-22T12:35:00.334Z,103739.30
2019-02-22T12:38:04.466Z,103731.05
2019-02-22T12:41:09.508Z,103734.16
2019-02-22T12:44:13.647Z,103736.58
2019-02-22T12:47:17.797Z,103749.14
2019-02-22T12:50:21.940Z,103763.27
2019-02-22T12:53:26.060Z,103759.36
2019-02-22T12:56:55.911Z,103753.30
2019-02-22T12:59:36.024Z,103749.36
2019-02-22T13:02:40.170Z,103754.45
2019-02-22T13:05:44.313Z,103769.67
2019-02-22T13:08:48.437Z,103777.27
2019-02-22T13:11:52.585Z,103787.86
2019-02-22T13:14:56.710Z,103795.39
2019-02-22T13:18:02.979Z,103793.20
2019-02-22T13:21:06.696Z,103794.98
2019-02-22T13:24:10.826Z,103794.59
2019-02-22T13:27:14.973Z,103782.91
2019-02-22T13:30:19.093Z,103777.27
2019-02-22T13:33:23.244Z,103766.57
2019-02-22T13:36:27.391Z,103771.72
2019-02-22T13:39:31.518Z,103773.81
2019-02-22T13:42:35.660Z,103763.94
2019-02-22T13:45:39.856Z,103750.20
2019-02-22T13:48:44.005Z,103764.50
2019-02-22T13:51:48.163Z,103761.03
2019-02-22T13:54:52.295Z,103765.88
2019-02-22T13:57:56.440Z,103784.97
2019-02-22T14:01:00.556Z,103782.89
2019-02-22T14:04:04.703Z,103773.79
2019-02-22T14:07:08.829Z,103789.00
2019-02-22T14:10:12.974Z,103784.62
2019-02-22T14:13:17.120Z,103788.86
2019-02-22T14:16:21.241Z,103788.64
2019-02-22T14:19:25.386Z,103799.64
2019-02-22T14:22:29.506Z,103808.87
2019-02-22T14:25:35.579Z,103804.23
2019-02-22T14:28:39.734Z,103805.09
2019-02-22T14:31:43.878Z,103802.19
2019-02-22T14:34:48.089Z,103800.16
2019-02-22T14:37:52.326Z,103793.03
2019-02-22T14:40:56.445Z,103807.64
2019-02-22T14:44:00.565Z,103807.59
2019-02-22T14:47:04.713Z,103805.33
2019-02-22T14:50:12.036Z,103808.36
2019-02-22T14:53:19.503Z,103810.63
2019-02-22T14:56:22.003Z,103808.48
2019-02-22T14:59:26.138Z,103813.06
2019-02-22T15:02:30.280Z,103804.81
2019-02-22T15:05:34.428Z,103812.93
2019-02-22T15:08:38.549Z,103819.51
2019-02-22T15:11:42.693Z,103813.40
2019-02-22T15:14:47.056Z,103815.39
2019-02-22T15:17:58.596Z,103822.86
2019-02-22T15:21:02.753Z,103822.91
2019-02-22T15:24:06.873Z,103827.34
2019-02-22T15:27:11.019Z,103833.39
2019-02-22T15:30:18.470Z,103829.11
2019-02-22T15:33:22.581Z,103819.65
2019-02-22T15:36:26.738Z,103823.13
2019-02-22T15:39:30.864Z,103828.38
2019-02-22T15:42:35.009Z,103821.80
2019-02-22T15:45:39.130Z,103822.30
2019-02-22T15:48:45.277Z,103822.69
2019-02-22T15:51:49.496Z,103839.43
2019-02-22T15:54:53.646Z,103821.03
2019-02-22T15:57:57.797Z,103827.53
2019-02-22T16:01:01.924Z,103839.93
2019-02-22T16:04:10.189Z,103841.64
2019-02-22T16:07:14.347Z,103847.13
2019-02-22T16:10:18.478Z,103844.91
2019-02-22T16:13:22.614Z,103840.98
2019-02-22T16:16:26.738Z,103844.33
2019-02-22T16:19:30.884Z,103857.72
2019-02-22T16:22:35.030Z,103865.47
2019-02-22T16:25:39.153Z,103867.48
2019-02-22T16:28:43.301Z,103872.17
2019-02-22T16:31:47.428Z,103873.38
2019-02-22T16:34:51.568Z,103873.72
2019-02-22T16:37:55.689Z,103882.80
2019-02-22T16:40:59.833Z,103892.73
2019-02-22T16:44:03.977Z,103873.19
2019-02-22T16:47:08.103Z,103876.59
2019-02-22T16:50:13.491Z,103880.91
2019-02-22T16:53:17.614Z,103877.77
2019-02-22T16:56:21.762Z,103880.81
2019-02-22T16:59:25.905Z,103883.92
2019-02-22T17:02:30.052Z,103889.90
2019-02-22T17:05:34.364Z,103895.41
2019-02-22T17:08:38.476Z,103897.23
2019-02-22T17:11:42.635Z,103903.74
2019-02-22T17:14:46.786Z,103907.86
2019-02-22T17:17:50.995Z,103916.50
2019-02-22T17:20:55.147Z,103914.37
2019-02-22T17:23:59.275Z,103914.84
2019-02-22T17:27:03.466Z,103914.11
2019-02-22T17:30:12.856Z,103918.63
2019-02-22T17:33:16.987Z,103913.45
2019-02-22T17:36:26.833Z,103918.45
2019-02-22T17:39:26.967Z,103923.74
2019-02-22T17:42:31.109Z,103937.17
2019-02-22T17:45:35.232Z,103939.31
2019-02-22T17:48:39.378Z,103944.52
2019-02-22T17:51:43.677Z,103945.61
2019-02-22T17:54:47.874Z,103942.00
2019-02-22T17:57:52.017Z,103946.05
2019-02-22T18:00:56.137Z,103954.34
2019-02-22T18:04:00.280Z,103958.70
2019-02-22T18:07:04.426Z,103955.73
2019-02-22T18:10:10.014Z,103952.72
2019-02-22T18:13:15.899Z,103947.56
2019-02-22T18:16:20.069Z,103952.36
2019-02-22T18:19:24.281Z,103947.16
2019-02-22T18:22:28.404Z,103947.66
2019-02-22T18:25:32.549Z,103944.66
2019-02-22T18:28:38.589Z,103952.05
2019-02-22T18:31:42.733Z,103954.35
2019-02-22T18:34:47.061Z,103967.36
2019-02-22T18:37:51.277Z,103958.64
2019-02-22T18:40:55.421Z,103958.81
2019-02-22T18:43:59.573Z,103966.06
2019-02-22T18:47:03.703Z,103964.30
2019-02-22T18:50:09.889Z,103950.73
2019-02-22T18:53:14.038Z,103946.05
2019-02-22T18:56:18.165Z,103947.52
2019-02-22T18:59:22.376Z,103944.52
2019-02-22T19:02:26.432Z,103944.97
2019-02-22T19:05:30.577Z,103931.76
2019-02-22T19:08:34.721Z,103931.81
2019-02-22T19:11:38.845Z,103936.44
2019-02-22T19:14:42.990Z,103942.53
2019-02-22T19:17:47.196Z,103948.02
2019-02-22T19:20:51.414Z,103941.48
2019-02-22T19:23:55.565Z,103938.07
2019-02-22T19:26:59.687Z,103953.74
2019-02-22T19:30:06.072Z,103956.29
2019-02-22T19:33:10.203Z,103955.48
2019-02-22T19:36:14.424Z,103964.18
2019-02-22T19:39:18.590Z,103970.71
2019-02-22T19:42:22.713Z,103965.92
2019-02-22T19:45:26.946Z,103973.31
2019-02-22T19:48:31.093Z,103978.16
2019-02-22T19:51:35.218Z,103982.97
2019-02-22T19:54:39.365Z,103975.66
2019-02-22T19:57:43.490Z,103978.70
2019-02-22T20:00:47.636Z,103982.66
2019-02-22T20:03:51.793Z,103977.95
2019-02-22T20:06:55.917Z,103981.45
2019-02-22T20:10:00.179Z,103974.97
2019-02-22T20:13:04.464Z,103971.98
2019-02-22T20:16:08.609Z,103993.34
2019-02-22T20:19:12.753Z,103991.66
2019-02-22T20:22:16.876Z,103988.18
2019-02-22T20:25:21.093Z,103986.95
2019-02-22T20:28:25.225Z,103993.92
2019-02-22T20:31:29.369Z,103983.98
2019-02-22T20:34:33.505Z,103989.73
2019-02-22T20:37:38.950Z,103981.05
2019-02-22T20:40:43.252Z,103981.09
2019-02-22T20:43:47.372Z,103984.11
2019-02-22T20:46:51.522Z,103973.36
2019-02-22T20:49:55.681Z,103971.97
2019-02-22T20:52:59.810Z,103967.67
2019-02-22T20:56:03.958Z,103976.94
2019-02-22T20:59:08.083Z,103985.22
2019-02-22T21:02:12.296Z,103993.88
2019-02-22T21:05:16.421Z,104002.20
2019-02-22T21:08:20.589Z,103996.14
2019-02-22T21:11:24.725Z,104001.80
2019-02-22T21:14:28.868Z,104007.92
2019-02-22T21:17:33.013Z,104016.14
2019-02-22T21:20:37.141Z,104025.77
2019-02-22T21:23:41.285Z,104030.97
2019-02-22T21:26:45.432Z,104037.08
2019-02-22T21:29:49.561Z,104040.63
2019-02-22T21:32:53.704Z,104051.89
2019-02-22T21:35:57.825Z,104060.05
2019-02-22T21:39:01.964Z,104054.96
2019-02-22T21:42:06.102Z,104063.14
2019-02-22T21:45:12.536Z,104060.20
2019-02-22T21:48:26.954Z,104068.91
2019-02-22T21:51:22.506Z,104065.50
2019-02-22T21:54:26.655Z,104078.47
2019-02-22T21:57:30.841Z,104094.92
2019-02-22T22:00:34.984Z,104093.63
2019-02-22T22:03:39.130Z,104092.42
2019-02-22T22:06:43.253Z,104100.22
2019-02-22T22:09:47.433Z,104095.89
2019-02-22T22:12:51.568Z,104089.86
2019-02-22T22:15:55.712Z,104091.22
2019-02-22T22:18:59.842Z,104087.78
2019-02-22T22:22:03.985Z,104085.11
2019-02-22T22:25:11.033Z,104089.02
2019-02-22T22:28:15.158Z,104094.73
2019-02-22T22:31:19.300Z,104100.83
2019-02-22T22:34:23.422Z,104098.63
2019-02-22T22:37:27.565Z,104101.67
2019-02-22T22:40:31.709Z,104102.19
2019-02-22T22:43:35.833Z,104111.31
2019-02-22T22:46:39.984Z,104114.78
2019-02-22T22:49:44.110Z,104114.44
2019-02-22T22:52:48.331Z,104108.34
2019-02-22T22:55:52.481Z,104112.69
2019-02-22T22:58:56.608Z,104120.48
2019-02-22T23:02:00.920Z,104123.52
2019-02-22T23:05:07.382Z,104115.30
2019-02-22T23:08:11.525Z,104114.88
2019-02-22T23:11:15.652Z,104107.53
2019-02-22T23:14:19.794Z,104104.94
2019-02-22T23:17:24.010Z,104094.58
2019-02-22T23:20:28.129Z,104094.56
2019-02-22T23:23:32.273Z,104092.88
2019-02-22T23:26:36.396Z,104089.01
2019-02-22T23:29:40.541Z,104092.04
2019-02-22T23:32:44.694Z,104083.43
2019-02-22T23:35:48.815Z,104082.55
2019-02-22T23:38:52.956Z,104085.66
2019-02-22T23:41:57.081Z,104087.82
2019-02-22T23:45:01.232Z,104093.45
2019-02-22T23:48:05.372Z,104090.45
2019-02-22T23:51:09.497Z,104088.28
2019-02-22T23:54:13.641Z,104082.73
2019-02-22T23:57:17.764Z,104068.45
